createdAt,value
2022-08-18T00:02:02.848Z,6.37
2022-08-18T00:04:36.576Z,4.90
2022-08-18T00:07:10.184Z,5.50
2022-08-18T00:09:39.670Z,5.00
2022-08-18T00:12:09.563Z,4.67
2022-08-18T00:14:37.701Z,4.73
2022-08-18T00:17:06.920Z,4.77
2022-08-18T00:19:46.304Z,6.37
2022-08-18T00:22:18.249Z,5.70
2022-08-18T00:24:48.560Z,5.80
2022-08-18T00:27:19.581Z,6.57
2022-08-18T00:29:50.083Z,5.30
2022-08-18T00:32:21.289Z,6.40
2022-08-18T00:34:49.102Z,6.07
2022-08-18T00:37:17.546Z,7.17
2022-08-18T00:39:46.023Z,6.77
2022-08-18T00:42:27.756Z,7.03
2022-08-18T00:45:00.987Z,7.13
2022-08-18T00:47:41.327Z,6.57
2022-08-18T00:50:15.427Z,7.90
2022-08-18T00:52:46.482Z,9.17
2022-08-18T00:55:14.367Z,7.60
2022-08-18T00:57:43.201Z,8.97
2022-08-18T01:00:13.945Z,9.40
2022-08-18T01:02:45.856Z,9.00
2022-08-18T01:05:17.799Z,9.60
2022-08-18T01:07:47.632Z,10.80
2022-08-18T01:10:17.169Z,9.50
2022-08-18T01:12:46.913Z,9.67
2022-08-18T01:15:27.969Z,9.17
2022-08-18T01:18:17.705Z,13.97
2022-08-18T01:21:08.560Z,10.30
2022-08-18T01:23:38.119Z,10.03
2022-08-18T01:26:06.299Z,10.10
2022-08-18T01:28:36.640Z,10.20
2022-08-18T01:31:04.849Z,14.30
2022-08-18T01:33:36.743Z,11.30
2022-08-18T01:36:17.110Z,12.03
2022-08-18T01:38:47.475Z,18.13
2022-08-18T01:41:26.111Z,14.90
2022-08-18T01:43:57.014Z,12.37
2022-08-18T01:46:25.390Z,12.57
2022-08-18T01:48:53.794Z,11.77
2022-08-18T01:51:36.621Z,13.00
2022-08-18T01:54:11.328Z,12.40
2022-08-18T01:56:39.014Z,12.60
2022-08-18T01:59:07.175Z,14.07
2022-08-18T02:01:45.345Z,13.80
2022-08-18T02:04:34.432Z,13.30
2022-08-18T02:07:05.686Z,14.70
2022-08-18T02:09:36.536Z,12.97
2022-08-18T02:12:07.343Z,14.30
2022-08-18T02:14:35.854Z,13.60
2022-08-18T02:17:05.445Z,14.50
2022-08-18T02:19:35.159Z,14.90
2022-08-18T02:22:03.303Z,16.13
2022-08-18T02:24:31.063Z,14.60
2022-08-18T02:27:00.057Z,15.17
2022-08-18T02:29:27.805Z,14.67
2022-08-18T02:31:55.540Z,16.83
2022-08-18T02:34:23.553Z,13.43
2022-08-18T02:36:51.295Z,14.57
2022-08-18T02:39:19.136Z,15.03
2022-08-18T02:41:46.961Z,15.80
2022-08-18T02:44:16.149Z,14.60
2022-08-18T02:46:43.842Z,15.60
2022-08-18T02:49:12.299Z,15.40
2022-08-18T02:51:40.157Z,13.40
2022-08-18T02:54:09.442Z,13.93
2022-08-18T02:56:42.071Z,13.93
2022-08-18T02:59:13.808Z,12.90
2022-08-18T03:01:45.301Z,13.87
2022-08-18T03:04:16.178Z,12.90
2022-08-18T03:06:45.396Z,14.97
2022-08-18T03:09:14.719Z,14.17
2022-08-18T03:11:42.713Z,13.13
2022-08-18T03:14:12.311Z,12.60
2022-08-18T03:16:53.597Z,13.00
2022-08-18T03:19:24.791Z,13.00
2022-08-18T03:21:53.216Z,14.70
2022-08-18T03:24:22.960Z,12.33
2022-08-18T03:26:52.750Z,11.53
2022-08-18T03:29:20.847Z,14.17
2022-08-18T03:31:48.783Z,13.40
2022-08-18T03:34:19.420Z,16.37
2022-08-18T03:36:49.178Z,12.37
2022-08-18T03:39:16.781Z,14.30
2022-08-18T03:42:00.190Z,14.63
2022-08-18T03:44:30.477Z,15.83
2022-08-18T03:46:58.431Z,14.93
2022-08-18T03:49:26.860Z,15.80
2022-08-18T03:51:56.046Z,16.27
2022-08-18T03:54:24.058Z,15.90
2022-08-18T03:56:51.676Z,17.30
2022-08-18T03:59:21.708Z,17.00
2022-08-18T04:01:51.452Z,17.13
2022-08-18T04:04:22.053Z,15.40
2022-08-18T04:06:51.293Z,16.70
2022-08-18T04:09:20.869Z,16.63
2022-08-18T04:11:48.967Z,16.80
2022-08-18T04:14:20.450Z,17.53
2022-08-18T04:16:49.042Z,16.30
2022-08-18T04:19:26.881Z,17.63
2022-08-18T04:21:56.649Z,17.40
2022-08-18T04:24:28.109Z,15.57
2022-08-18T04:27:00.755Z,16.10
2022-08-18T04:29:28.780Z,14.77
2022-08-18T04:31:56.569Z,22.83
2022-08-18T04:34:24.580Z,17.87
2022-08-18T04:36:54.457Z,16.03
2022-08-18T04:39:23.038Z,15.00
2022-08-18T04:41:52.866Z,17.40
2022-08-18T04:44:21.766Z,15.27
2022-08-18T04:46:52.111Z,17.93
2022-08-18T04:49:20.659Z,16.47
2022-08-18T04:52:34.157Z,15.93
2022-08-18T04:54:58.138Z,16.20
2022-08-18T04:57:27.087Z,20.43
2022-08-18T04:59:55.116Z,16.10
2022-08-18T05:02:23.230Z,14.80
2022-08-18T05:04:52.478Z,15.90
2022-08-18T05:07:23.535Z,14.43
2022-08-18T05:09:51.942Z,15.13
2022-08-18T05:12:20.503Z,17.63
2022-08-18T05:14:57.294Z,14.80
2022-08-18T05:17:28.877Z,13.30
2022-08-18T05:19:58.849Z,13.23
2022-08-18T05:22:28.734Z,12.93
2022-08-18T05:24:59.808Z,13.40
2022-08-18T05:27:32.912Z,15.97
2022-08-18T05:30:02.550Z,14.17
2022-08-18T05:32:47.204Z,14.10
2022-08-18T05:35:22.657Z,16.30
2022-08-18T05:38:04.173Z,16.73
2022-08-18T05:40:32.230Z,14.90
2022-08-18T05:43:00.471Z,15.83
2022-08-18T05:45:30.116Z,13.77
2022-08-18T05:48:00.044Z,14.57
2022-08-18T05:50:29.133Z,16.03
2022-08-18T05:52:59.272Z,22.37
2022-08-18T05:55:50.365Z,15.77
2022-08-18T05:58:21.449Z,23.60
2022-08-18T06:00:58.755Z,15.17
2022-08-18T06:03:30.407Z,17.63
2022-08-18T06:06:16.079Z,13.80
2022-08-18T06:08:46.900Z,19.30
2022-08-18T06:11:22.446Z,17.77
2022-08-18T06:13:51.673Z,14.77
2022-08-18T06:16:38.253Z,22.30
2022-08-18T06:19:21.188Z,18.40
2022-08-18T06:21:54.937Z,17.20
2022-08-18T06:24:29.669Z,19.10
2022-08-18T06:27:02.505Z,22.93
2022-08-18T06:29:40.902Z,17.10
2022-08-18T06:32:18.064Z,22.03
2022-08-18T06:34:56.224Z,18.93
2022-08-18T06:37:29.690Z,17.90
2022-08-18T06:39:58.365Z,18.57
2022-08-18T06:42:30.674Z,22.07
2022-08-18T06:45:02.103Z,20.60
2022-08-18T06:47:40.699Z,18.90
2022-08-18T06:50:13.215Z,19.90
2022-08-18T06:52:53.075Z,28.50
2022-08-18T06:55:33.598Z,21.03
2022-08-18T06:58:03.217Z,19.73
2022-08-18T07:00:32.903Z,20.30
2022-08-18T07:03:06.819Z,18.10
2022-08-18T07:05:36.295Z,21.80
2022-08-18T07:08:12.489Z,20.77
2022-08-18T07:10:42.624Z,20.60
2022-08-18T07:13:26.682Z,24.53
2022-08-18T07:15:55.864Z,29.30
2022-08-18T07:18:29.960Z,29.87
2022-08-18T07:20:59.666Z,33.10
2022-08-18T07:23:30.659Z,33.37
2022-08-18T07:26:07.000Z,38.90
2022-08-18T07:28:37.763Z,36.37
2022-08-18T07:31:17.287Z,40.53
2022-08-18T07:33:50.543Z,39.87
2022-08-18T07:36:18.407Z,41.63
2022-08-18T07:38:50.125Z,42.93
2022-08-18T07:41:20.959Z,51.13
2022-08-18T07:43:59.466Z,50.37
2022-08-18T07:46:35.171Z,43.33
2022-08-18T07:49:06.353Z,44.97
2022-08-18T07:51:43.824Z,40.10
2022-08-18T07:54:45.303Z,47.70
2022-08-18T07:57:12.590Z,46.03
2022-08-18T07:59:49.338Z,41.50
2022-08-18T08:02:33.659Z,42.33
2022-08-18T08:05:09.020Z,39.93
2022-08-18T08:07:44.201Z,42.10
2022-08-18T08:10:25.716Z,36.70
2022-08-18T08:13:09.323Z,36.77
2022-08-18T08:15:44.227Z,38.50
2022-08-18T08:18:15.148Z,41.60
2022-08-18T08:20:48.905Z,46.73
2022-08-18T08:23:28.713Z,44.60
2022-08-18T08:26:24.972Z,47.90
2022-08-18T08:28:59.984Z,48.73
2022-08-18T08:31:38.335Z,54.60
2022-08-18T08:34:10.910Z,54.80
2022-08-18T08:36:44.906Z,60.37
2022-08-18T08:39:17.110Z,57.83
2022-08-18T08:41:49.406Z,64.03
2022-08-18T08:44:22.389Z,65.10
2022-08-18T08:46:55.823Z,66.50
2022-08-18T08:49:35.142Z,48.03
2022-08-18T08:52:08.157Z,41.47
2022-08-18T08:54:42.443Z,41.50
2022-08-18T08:57:10.980Z,37.70
2022-08-18T08:59:40.211Z,35.23
2022-08-18T09:02:47.746Z,34.80
2022-08-18T09:05:19.872Z,31.23
2022-08-18T09:08:03.219Z,33.87
2022-08-18T09:10:41.909Z,35.13
2022-08-18T09:13:29.167Z,34.33
2022-08-18T09:16:11.078Z,35.40
2022-08-18T09:18:50.288Z,32.57
2022-08-18T09:21:27.384Z,33.70
2022-08-18T09:24:06.394Z,33.50
2022-08-18T09:26:44.104Z,34.90
2022-08-18T09:29:23.308Z,35.80
2022-08-18T09:32:35.462Z,36.67
2022-08-18T09:35:14.737Z,34.83
2022-08-18T09:38:08.606Z,29.03
2022-08-18T09:41:03.828Z,34.00
2022-08-18T09:43:36.683Z,33.23
2022-08-18T09:46:06.208Z,37.37
2022-08-18T09:48:36.256Z,32.63
2022-08-18T09:51:24.542Z,38.43
2022-08-18T09:54:21.193Z,34.03
2022-08-18T09:57:19.560Z,35.03
2022-08-18T10:00:19.742Z,34.50
2022-08-18T10:03:14.462Z,32.43
2022-08-18T10:05:57.580Z,33.57
2022-08-18T10:08:42.909Z,34.10
2022-08-18T10:11:29.218Z,34.27
2022-08-18T10:14:09.648Z,36.60
2022-08-18T10:17:13.207Z,34.40
2022-08-18T10:19:39.795Z,33.57
2022-08-18T10:22:10.249Z,31.43
2022-08-18T10:24:41.958Z,31.73
2022-08-18T10:27:16.367Z,34.23
2022-08-18T10:29:51.472Z,30.67
2022-08-18T10:32:49.480Z,27.73
2022-08-18T10:35:58.436Z,27.80
2022-08-18T10:38:31.105Z,33.37
2022-08-18T10:41:09.735Z,28.73
2022-08-18T10:43:55.958Z,28.17
2022-08-18T10:46:32.832Z,28.23
2022-08-18T10:49:18.264Z,30.47
2022-08-18T10:52:01.403Z,27.90
2022-08-18T10:54:39.147Z,26.10
2022-08-18T10:57:35.476Z,28.07
2022-08-18T11:00:09.837Z,27.07
2022-08-18T11:03:01.949Z,26.90
2022-08-18T11:05:36.595Z,28.13
2022-08-18T11:08:16.061Z,25.90
2022-08-18T11:11:27.677Z,27.50
2022-08-18T11:14:04.163Z,26.47
2022-08-18T11:16:46.586Z,25.87
2022-08-18T11:19:21.051Z,26.80
2022-08-18T11:21:51.261Z,25.90
2022-08-18T11:24:21.970Z,25.80
2022-08-18T11:26:52.886Z,21.93
2022-08-18T11:29:24.126Z,25.90
2022-08-18T11:31:54.761Z,24.20
2022-08-18T11:34:35.756Z,22.43
2022-08-18T11:37:09.484Z,18.47
2022-08-18T11:39:44.380Z,17.43
2022-08-18T11:42:24.966Z,20.67
2022-08-18T11:44:56.553Z,17.00
2022-08-18T11:47:27.636Z,19.13
2022-08-18T11:50:08.414Z,18.73
2022-08-18T11:52:53.909Z,17.73
2022-08-18T11:55:35.101Z,21.03
2022-08-18T11:58:05.552Z,17.00
2022-08-18T12:00:54.431Z,18.63
2022-08-18T12:03:30.231Z,17.20
2022-08-18T12:06:34.553Z,14.40
2022-08-18T12:09:05.890Z,14.03
2022-08-18T12:11:35.724Z,14.33
2022-08-18T12:14:31.898Z,16.30
2022-08-18T12:17:14.334Z,14.53
2022-08-18T12:19:59.511Z,13.80
2022-08-18T12:22:38.572Z,13.37
2022-08-18T12:25:12.323Z,14.10
2022-08-18T12:27:40.443Z,12.27
2022-08-18T12:30:16.554Z,12.00
2022-08-18T12:32:49.043Z,12.53
2022-08-18T12:38:13.074Z,14.60
2022-08-18T12:40:42.229Z,15.53
2022-08-18T12:43:10.549Z,11.43
2022-08-18T12:45:38.507Z,12.80
2022-08-18T12:48:07.742Z,11.43
2022-08-18T12:53:29.709Z,11.30
2022-08-18T12:56:07.307Z,12.17
2022-08-18T12:58:36.620Z,10.70
2022-08-18T13:01:04.403Z,14.50
2022-08-18T13:03:35.263Z,11.07
2022-08-18T13:06:04.839Z,9.97
2022-08-18T13:08:47.751Z,13.00
2022-08-18T13:11:23.551Z,11.83
2022-08-18T13:13:56.589Z,10.43
2022-08-18T13:16:39.045Z,9.80
2022-08-18T13:19:14.698Z,15.50
2022-08-18T13:21:43.141Z,10.97
2022-08-18T13:24:13.011Z,13.83
2022-08-18T13:26:45.899Z,13.97
2022-08-18T13:29:14.266Z,12.30
2022-08-18T13:31:49.289Z,10.00
2022-08-18T13:34:24.419Z,9.83
2022-08-18T13:36:52.135Z,8.10
2022-08-18T13:39:23.556Z,11.40
2022-08-18T13:41:54.603Z,10.70
2022-08-18T13:44:25.906Z,10.30
2022-08-18T13:46:55.542Z,18.97
2022-08-18T13:49:30.501Z,14.93
2022-08-18T13:51:59.184Z,13.90
2022-08-18T13:54:35.210Z,15.20
2022-08-18T13:57:03.795Z,13.53
2022-08-18T13:59:34.162Z,11.80
2022-08-18T14:02:05.837Z,11.53
2022-08-18T14:04:38.598Z,12.07
2022-08-18T14:07:10.951Z,13.83
2022-08-18T14:09:41.597Z,12.63
2022-08-18T14:12:23.252Z,12.73
2022-08-18T14:14:52.986Z,12.20
2022-08-18T14:17:22.433Z,15.37
2022-08-18T14:20:10.614Z,10.70
2022-08-18T14:23:00.882Z,14.17
2022-08-18T14:25:47.216Z,10.77
2022-08-18T14:28:15.115Z,13.40
2022-08-18T14:30:50.723Z,12.50
2022-08-18T14:33:27.251Z,14.10
2022-08-18T14:36:05.874Z,10.87
2022-08-18T14:38:38.249Z,10.30
2022-08-18T14:41:09.241Z,11.40
2022-08-18T14:44:00.421Z,14.00
2022-08-18T14:46:30.233Z,12.93
2022-08-18T14:49:00.168Z,14.90
2022-08-18T14:51:33.660Z,15.57
2022-08-18T14:54:01.990Z,14.97
2022-08-18T14:56:33.337Z,15.30
2022-08-18T14:59:07.983Z,16.10
2022-08-18T15:01:36.157Z,15.57
2022-08-18T15:04:18.667Z,14.37
2022-08-18T15:06:55.864Z,14.00
2022-08-18T15:09:24.291Z,14.87
2022-08-18T15:11:58.364Z,16.33
2022-08-18T15:14:32.927Z,14.13
2022-08-18T15:17:02.709Z,15.57
2022-08-18T15:19:58.398Z,17.37
2022-08-18T15:22:35.550Z,17.57
2022-08-18T15:25:24.008Z,15.40
2022-08-18T15:27:54.156Z,17.90
2022-08-18T15:30:22.807Z,15.33
2022-08-18T15:32:51.272Z,15.93
2022-08-18T15:35:20.250Z,13.53
2022-08-18T15:37:51.280Z,14.00
2022-08-18T15:40:35.902Z,16.40
2022-08-18T15:43:10.580Z,13.00
2022-08-18T15:45:56.229Z,13.30
2022-08-18T15:48:27.869Z,13.10
2022-08-18T15:50:56.056Z,12.43
2022-08-18T15:53:29.847Z,11.80
2022-08-18T15:55:58.200Z,11.77
2022-08-18T15:58:33.193Z,12.30
2022-08-18T16:01:00.804Z,12.70
2022-08-18T16:03:29.054Z,13.10
2022-08-18T16:05:56.805Z,11.17
2022-08-18T16:08:26.330Z,12.57
2022-08-18T16:10:54.903Z,12.00
2022-08-18T16:13:24.555Z,13.80
2022-08-18T16:15:53.677Z,12.73
2022-08-18T16:18:21.994Z,10.20
2022-08-18T16:20:52.820Z,8.73
2022-08-18T16:23:24.560Z,10.57
2022-08-18T16:25:52.364Z,13.93
2022-08-18T16:28:20.000Z,8.87
2022-08-18T16:30:47.792Z,11.73
2022-08-18T16:33:17.118Z,13.23
2022-08-18T16:35:47.579Z,10.43
2022-08-18T16:38:15.229Z,9.47
2022-08-18T16:40:42.828Z,10.67
2022-08-18T16:43:11.685Z,10.37
2022-08-18T16:45:42.646Z,12.77
2022-08-18T16:48:11.862Z,11.80
2022-08-18T16:50:45.724Z,9.60
2022-08-18T16:53:13.476Z,12.27
2022-08-18T16:55:43.238Z,12.53
2022-08-18T16:58:28.363Z,10.80
2022-08-18T17:01:15.645Z,10.40
2022-08-18T17:04:04.299Z,8.60
2022-08-18T17:06:47.073Z,11.03
2022-08-18T17:09:15.293Z,13.00
2022-08-18T17:11:51.434Z,8.97
2022-08-18T17:14:20.763Z,12.80
2022-08-18T17:16:51.102Z,10.10
2022-08-18T17:19:18.926Z,11.30
2022-08-18T17:21:48.697Z,14.23
2022-08-18T17:24:17.426Z,11.90
2022-08-18T17:26:50.644Z,10.13
2022-08-18T17:29:24.112Z,9.83
2022-08-18T17:31:58.514Z,14.60
2022-08-18T17:34:31.655Z,11.20
2022-08-18T17:37:01.899Z,12.77
2022-08-18T17:39:32.531Z,13.20
2022-08-18T17:42:17.681Z,15.83
2022-08-18T17:44:52.660Z,11.97
2022-08-18T17:47:27.041Z,12.20
2022-08-18T17:50:27.939Z,11.53
2022-08-18T17:53:05.236Z,13.20
2022-08-18T17:55:39.489Z,14.10
2022-08-18T17:58:11.279Z,9.97
2022-08-18T18:00:40.288Z,15.27
2022-08-18T18:03:09.794Z,12.27
2022-08-18T18:05:44.728Z,15.13
2022-08-18T18:08:13.837Z,11.13
2022-08-18T18:13:32.902Z,9.87
2022-08-18T18:16:02.064Z,23.00
2022-08-18T18:18:36.838Z,10.40
2022-08-18T18:21:08.721Z,13.87
2022-08-18T18:23:41.214Z,12.43
2022-08-18T18:26:29.408Z,13.47
2022-08-18T18:29:20.054Z,11.83
2022-08-18T18:31:58.566Z,10.00
2022-08-18T18:34:30.637Z,12.90
2022-08-18T18:37:00.296Z,14.87
2022-08-18T18:39:33.652Z,12.33
2022-08-18T18:42:17.951Z,10.73
2022-08-18T18:44:54.389Z,11.07
2022-08-18T18:47:43.939Z,10.50
2022-08-18T18:50:16.484Z,10.10
2022-08-18T18:52:49.072Z,9.67
2022-08-18T18:55:21.107Z,9.50
2022-08-18T18:57:57.337Z,9.67
2022-08-18T19:00:30.076Z,11.37
2022-08-18T19:03:03.738Z,10.07
2022-08-18T19:05:37.006Z,9.93
2022-08-18T19:08:07.837Z,11.20
2022-08-18T19:10:41.284Z,13.70
2022-08-18T19:13:32.271Z,9.53
2022-08-18T19:16:06.353Z,9.47
2022-08-18T19:18:36.337Z,11.93
2022-08-18T19:22:04.239Z,10.87
2022-08-18T19:23:59.068Z,12.70
2022-08-18T19:26:32.270Z,9.30
2022-08-18T19:29:13.491Z,10.27
2022-08-18T19:31:46.153Z,10.37
2022-08-18T19:34:18.634Z,9.67
2022-08-18T19:36:53.567Z,12.57
2022-08-18T19:39:25.209Z,12.63
2022-08-18T19:41:59.439Z,10.27
2022-08-18T19:44:35.210Z,12.90
2022-08-18T19:47:08.520Z,12.93
2022-08-18T19:49:39.344Z,10.70
2022-08-18T19:52:45.906Z,13.30
2022-08-18T19:55:11.010Z,15.20
2022-08-18T19:58:01.407Z,13.33
2022-08-18T20:00:41.167Z,14.03
2022-08-18T20:03:29.572Z,10.57
2022-08-18T20:06:34.920Z,10.33
2022-08-18T20:09:13.871Z,14.60
2022-08-18T20:11:58.415Z,11.70
2022-08-18T20:14:28.263Z,15.73
2022-08-18T20:17:28.817Z,10.17
2022-08-18T20:20:18.178Z,13.17
2022-08-18T20:22:46.862Z,11.87
2022-08-18T20:25:42.990Z,10.87
2022-08-18T20:28:26.075Z,10.77
2022-08-18T20:31:01.641Z,10.70
2022-08-18T20:33:32.686Z,10.77
2022-08-18T20:36:22.970Z,12.23
2022-08-18T20:38:53.111Z,11.60
2022-08-18T20:41:50.558Z,14.03
2022-08-18T20:44:44.208Z,16.43
2022-08-18T20:47:35.689Z,15.40
2022-08-18T20:50:21.774Z,11.73
2022-08-18T20:53:00.559Z,15.43
2022-08-18T20:55:31.152Z,10.00
2022-08-18T20:58:03.563Z,15.70
2022-08-18T21:00:31.558Z,11.60
2022-08-18T21:03:01.040Z,11.67
2022-08-18T21:05:33.401Z,12.60
2022-08-18T21:08:04.622Z,11.30
2022-08-18T21:10:33.356Z,18.30
2022-08-18T21:13:03.566Z,12.83
2022-08-18T21:15:35.522Z,11.57
2022-08-18T21:18:06.627Z,10.73
2022-08-18T21:20:34.645Z,13.20
2022-08-18T21:23:06.444Z,13.43
2022-08-18T21:25:34.337Z,10.97
2022-08-18T21:28:03.825Z,12.47
2022-08-18T21:30:32.612Z,15.70
2022-08-18T21:33:00.187Z,11.03
2022-08-18T21:35:32.895Z,12.50
2022-08-18T21:38:02.084Z,17.80
2022-08-18T21:40:36.412Z,13.10
2022-08-18T21:43:04.214Z,13.70
2022-08-18T21:45:32.609Z,12.53
2022-08-18T21:48:07.723Z,20.23
2022-08-18T21:50:37.416Z,13.63
2022-08-18T21:53:17.321Z,14.50
2022-08-18T21:55:47.802Z,14.37
2022-08-18T21:58:19.691Z,17.27
2022-08-18T22:01:11.616Z,16.73
2022-08-18T22:03:51.539Z,17.07
2022-08-18T22:06:27.222Z,15.80
2022-08-18T22:08:57.918Z,17.50
2022-08-18T22:12:00.467Z,14.37
2022-08-18T22:14:53.628Z,19.83
2022-08-18T22:17:27.446Z,14.37
2022-08-18T22:19:55.416Z,19.50
2022-08-18T22:22:44.537Z,15.50
2022-08-18T22:25:12.980Z,16.73
2022-08-18T22:27:41.036Z,18.93
2022-08-18T22:30:09.291Z,13.03
2022-08-18T22:32:38.848Z,19.13
2022-08-18T22:35:07.892Z,17.60
2022-08-18T22:37:46.303Z,16.73
2022-08-18T22:40:21.847Z,13.47
2022-08-18T22:42:50.338Z,14.73
2022-08-18T22:45:19.011Z,14.80
2022-08-18T22:47:46.615Z,17.97
2022-08-18T22:50:14.989Z,17.23
2022-08-18T22:52:47.474Z,14.63
2022-08-18T22:55:24.067Z,17.30
2022-08-18T22:57:55.631Z,16.30
2022-08-18T23:00:25.297Z,14.60
2022-08-18T23:02:53.753Z,17.33
2022-08-18T23:05:21.699Z,16.70
2022-08-18T23:07:50.722Z,16.30
2022-08-18T23:10:18.506Z,27.57
2022-08-18T23:12:47.985Z,26.03
2022-08-18T23:15:16.675Z,17.03
2022-08-18T23:17:44.403Z,18.10
2022-08-18T23:20:17.591Z,18.80
2022-08-18T23:22:47.058Z,22.07
2022-08-18T23:25:17.089Z,20.37
2022-08-18T23:27:44.728Z,27.73
2022-08-18T23:30:12.759Z,22.63
2022-08-18T23:32:40.387Z,21.77
2022-08-18T23:35:08.716Z,26.27
2022-08-18T23:37:36.270Z,16.30
2022-08-18T23:40:04.595Z,17.30
2022-08-18T23:42:33.592Z,20.63
2022-08-18T23:45:03.794Z,24.47
2022-08-18T23:47:31.565Z,17.40
2022-08-18T23:49:59.603Z,17.80
2022-08-18T23:52:27.164Z,17.07
2022-08-18T23:54:55.072Z,19.03
2022-08-18T23:57:22.696Z,18.90
2022-08-18T23:59:51.603Z,19.87
